Flight Track Log - Related Links

Times and Time Zones

All times are in EDT time to prevent confusion due to time zone crossing. See the N401CG flight status page for this flight to view local times or setup timezone preferences in your user account.

Time Position Orientation Groundspeed Altitude Reporting Facility
EDT Latitude Longitude Course Direction KTS MPH feet Rate Location/Type
Mon 06:34:58 PM 46.1994 -95.9119 116° Southeast 202 232 5,800  Level Minneapolis Center
Mon 06:36:00 PM 46.1753 -95.8453 118° Southeast 203 234 6,900 1,161 Climbing Minneapolis Center
Mon 06:37:02 PM 46.1469 -95.7633 116° Southeast 202 232 8,200 1,161 Climbing Minneapolis Center
Mon 06:38:04 PM 46.1192 -95.6864 117° Southeast 205 236 9,300 1,113 Climbing Minneapolis Center
Mon 06:39:06 PM 46.0897 -95.6053 118° Southeast 213 245 10,500 1,113 Climbing Minneapolis Center
Mon 06:40:00 PM 46.0955 -95.6363 116° Southeast  Level FlightAware Approximate
Mon 06:40:08 PM 46.0578 -95.5100 116° Southeast 236 272 11,600  Level Minneapolis Center
Mon 06:41:10 PM 46.0256 -95.4214 118° Southeast 249 287 12,700 1,073 Climbing Minneapolis Center
Mon 06:42:11 PM 45.9931 -95.3289 117° Southeast 256 295 13,800 1,015 Climbing Minneapolis Center
Mon 06:43:26 PM 45.9511 -95.1964 114° Southeast 261 300 15,000 529 Climbing Minneapolis Center
Mon 06:44:27 PM 45.9397 -95.0847 98° East 278 320 15,000  Level Minneapolis Center
Mon 06:45:29 PM 45.9261 -94.9764 100° East 286 329 15,000  Level Minneapolis Center
Mon 06:46:43 PM 45.9119 -94.8639 100° East 287 330 15,000  Level Minneapolis Center
Mon 06:47:45 PM 45.8803 -94.7389 110° East 284 327 15,000  Level Minneapolis Center
Mon 06:48:47 PM 45.8483 -94.6375 114° Southeast 280 322 15,000  Level Minneapolis Center
Mon 06:49:49 PM 45.8128 -94.5144 112° Southeast 280 322 15,000  Level Minneapolis Center
Mon 06:50:51 PM 45.7842 -94.4100 111° Southeast 281 323 15,000  Level Minneapolis Center
Mon 06:51:53 PM 45.7536 -94.3089 113° Southeast 279 321 15,000  Level Minneapolis Center
Mon 06:53:06 PM 45.7239 -94.2075 113° Southeast 279 321 15,000 -485 Level Minneapolis Center
Mon 06:54:09 PM 45.6856 -94.0817 114° Southeast 286 329 13,900 -1,210 Descending Minneapolis Center
Mon 06:55:10 PM 45.6575 -93.9875 113° Southeast 314 361 12,500 -1,805 Descending Minneapolis Center
Mon 06:56:12 PM 45.6100 -93.8267 113° Southeast 316 364 10,200 -1,887 Descending Minneapolis Center
Mon 06:57:14 PM 45.5803 -93.7225 112° Southeast 287 330 8,600 -1,500 Descending Minneapolis Center
Mon 06:58:16 PM 45.5506 -93.6272 114° Southeast 267 307 7,100 -774 Descending Minneapolis Center
Mon 06:59:18 PM 45.5075 -93.5622 133° Southeast 235 270 7,000 -341 Descending Minneapolis Center
Mon 07:00:19 PM 45.4511 -93.5211 153° Southeast 228 262 6,400 -1,122 Descending Minneapolis Center
Mon 07:01:21 PM 45.3947 -93.4669 146° Southeast 241 277 4,700 -1,161 Descending Minneapolis Center
Mon 07:02:23 PM 45.3419 -93.4211 149° Southeast 222 255 4,000 -339 Descending Minneapolis Center
Mon 07:03:25 PM 45.2878 -93.3703 147° Southeast 195 224 4,000  Level Minneapolis Center
Mon 07:04:39 PM 45.2406 -93.3297 149° Southeast 196 226 4,000  Level Minneapolis Center
Mon 07:05:41 PM 45.1847 -93.2794 148° Southeast 197 227 4,000  Level Minneapolis Center
Mon 07:06:42 PM 45.1372 -93.2378 148° Southeast 200 230 4,000  Level Minneapolis Center
Mon 07:07:44 PM 45.0900 -93.1983 149° Southeast 199 229 4,000 -581 Level Minneapolis Center
Mon 07:08:46 PM 45.0369 -93.1636 155° Southeast 209 241 2,800 -871 Descending Minneapolis Center
Mon 07:09:48 PM 44.9953 -93.1161 141° Southeast 189 217 2,200 -780 Descending Minneapolis Center
Mon 07:10:49 PM 44.9558 -93.0817 148° Southeast 135 155 1,200 -634 Descending Minneapolis Center
Mon 07:11:51 PM 44.9369 -93.0600 141° Southeast 121 139 900 -290 Descending Minneapolis Center
Mon 07:13:00 PM 44.9333 -93.0500 109° East  Level FlightAware Approximate

Login

Don't have an account? Register now (free) for customized features, flight alerts, and more!